Branchland, WV

5:59 AM EDT on June 30, 2015 (GMT -0400)
Near Salt Rock Elementary School | | Change Station
CLOSE
Current Station
Personal Weather Station
Location: Salt Rock, WV
Elevation: 627 ft
Nearby Weather Stations

Elev 627 ft 38.32 °N, 82.23 °W | Updated 9 minutes ago

Mostly Cloudy
Mostly Cloudy
61.9 °F
Feels Like 61.9 °F
N
0.0
Wind Variable Wind from East
Gusts 0.0 mph

Today
High -- | Low -- °F
--% Chance of Precip.
Yesterday
High -- | Low -- °F
Precip. -- in
6:08 AM 8:56 PM
Waxing Gibbous, 97% visible
Pressure 29.86 in
Visibility 9.0 miles
Clouds Overcast 600 ft
Dew Point 60 °F
Humidity 94%
Rainfall in
Snow Depth Not available.
UV 0 out of 12
Pollen 3.20 out of 12
Air Quality Not available.
Flu Activity Sporadic
METAR KHTS 300951Z 21005KT 9SM OVC006 19/18 A2987 RMK AO2 SLP109 T01890183

More Conditions Fewer Conditions

Pressure 29.86 in
Visibility 9.0 miles
Clouds Overcast 600 ft
Dew Point 60 °F
Humidity 94%
Rainfall in
Snow Depth Not available.
UV 0 out of 12
Pollen 3.20 out of 12
Air Quality Not available.
Flu Activity Sporadic
METAR KHTS 300951Z 21005KT 9SM OVC006 19/18 A2987 RMK AO2 SLP109 T01890183

More Conditions Fewer Conditions

10-Day Weather Forecast

×

Almanac

Astronomy

Jun. 30, 2015 Rise Set
Actual Time
Civil Twilight
Nautical Twilight
Astronomical Twilight
Moon
Length of Visible Light
Length of Day
Tomorrow will be .
, % of the Moon is Illuminated

Today's Extremes

State Highs State Lows

Community

WunderPhotos

Upload Photos

1,833,983 photos uploaded!

WunderBlogs® & News

Nearby

Air Quality

  Air Quality AQ Index Pollutant
Not available.

Snow Depth

Station Depth Elevation

Earthquake Activity

City Distance Mag. Time & Date
Minimum magnitude displayed is 2.5.

Coastal Water Temperatures

Place Temperature

Stations

Nearby Weather Stations

Station Location Temp. Windchill Dew Point Humidity Wind Precip. Elev Updated Type